Time;durP1;ratioP1;P1;durP2;ratioP2;P2;SDS_P1;SDS_P2;PMS_P1;PMS_P2;Temp;Humidity;BMP_temperature;BMP_pressure;BME280_temperature;BME280_humidity;BME280_pressure;Samples;Min_cycle;Max_cycle;Signal;HPM_P1;HPM_P2
2023/06/16 03:16:20;;;;;;;5.13;1.60;;;17.80;72.50;;;;;;6172243;22;89655;-72
2023/06/16 03:18:47;;;;;;;5.97;1.95;;;17.70;72.00;;;;;;6217680;22;88037;-72
2023/06/16 03:21:13;;;;;;;4.07;1.55;;;17.60;73.20;;;;;;6218980;22;87078;-73
2023/06/16 03:23:38;;;;;;;3.67;1.33;;;17.40;73.40;;;;;;6217986;22;88418;-71
2023/06/16 03:26:04;;;;;;;4.57;1.65;;;17.40;73.80;;;;;;6218234;22;87400;-71
2023/06/16 03:28:29;;;;;;;5.03;2.28;;;17.30;73.40;;;;;;6218679;22;87381;-71
2023/06/16 03:30:55;;;;;;;4.20;1.83;;;17.30;73.30;;;;;;6218652;22;87382;-73
2023/06/16 03:33:21;;;;;;;4.10;1.90;;;17.20;73.00;;;;;;6218230;22;88534;-74
2023/06/16 03:35:47;;;;;;;3.28;1.63;;;17.20;72.30;;;;;;6216898;22;88763;-73
2023/06/16 03:38:12;;;;;;;4.65;1.80;;;17.20;72.80;;;;;;6219118;22;87199;-74
2023/06/16 03:40:38;;;;;;;2.28;1.48;;;17.20;72.40;;;;;;6217339;22;87355;-73
2023/06/16 03:43:04;;;;;;;3.47;1.95;;;17.20;72.70;;;;;;6216660;22;88019;-74
2023/06/16 03:45:29;;;;;;;3.15;1.52;;;17.10;72.50;;;;;;6217118;22;88627;-73
2023/06/16 03:47:55;;;;;;;4.10;1.80;;;17.10;72.60;;;;;;6217946;22;87238;-72
2023/06/16 03:50:21;;;;;;;3.42;1.60;;;17.10;73.40;;;;;;6216643;22;87376;-73
2023/06/16 03:52:46;;;;;;;2.50;1.50;;;17.10;72.90;;;;;;6217027;22;87925;-73
2023/06/16 03:55:13;;;;;;;5.95;1.63;;;17.20;73.30;;;;;;6218397;22;87895;-72
2023/06/16 03:57:39;;;;;;;3.03;1.63;;;17.20;73.80;;;;;;6219141;22;87519;-73
2023/06/16 04:00:09;;;;;;;5.80;1.58;;;17.20;73.80;;;;;;6219218;22;87253;-73
2023/06/16 04:02:35;;;;;;;5.90;1.73;;;17.30;73.00;;;;;;6216402;22;88011;-73
2023/06/16 04:05:02;;;;;;;5.00;1.63;;;17.40;73.40;;;;;;6218295;22;88591;-74
2023/06/16 04:07:27;;;;;;;4.10;1.70;;;17.50;72.90;;;;;;6216663;22;88296;-73
2023/06/16 04:09:53;;;;;;;4.28;1.92;;;17.60;72.70;;;;;;6216794;22;87333;-73
2023/06/16 04:12:19;;;;;;;4.10;1.83;;;17.60;72.70;;;;;;6217434;22;88692;-73
2023/06/16 04:14:45;;;;;;;5.68;2.20;;;17.70;72.40;;;;;;6218230;22;87693;-74
2023/06/16 04:17:10;;;;;;;7.00;2.05;;;17.70;72.40;;;;;;6217739;22;87113;-72
2023/06/16 04:19:36;;;;;;;3.53;1.65;;;17.80;72.50;;;;;;6218826;22;87380;-71
2023/06/16 04:22:02;;;;;;;3.40;1.95;;;17.80;73.20;;;;;;6217860;22;88219;-72
2023/06/16 04:24:27;;;;;;;4.78;1.85;;;17.80;72.80;;;;;;6218661;22;87908;-71
2023/06/16 04:26:58;;;;;;;3.95;2.10;;;17.90;72.60;;;;;;6218222;22;87165;-72
2023/06/16 04:29:26;;;;;;;4.53;2.22;;;18.00;72.20;;;;;;6218386;22;87034;-74
2023/06/16 04:31:51;;;;;;;7.90;2.38;;;18.10;71.90;;;;;;6217654;22;88919;-74
2023/06/16 04:34:18;;;;;;;5.63;1.77;;;18.10;72.60;;;;;;6217904;22;88892;-74
2023/06/16 04:36:44;;;;;;;6.82;2.33;;;18.20;72.30;;;;;;6217916;22;87299;-74
2023/06/16 04:39:13;;;;;;;4.88;2.30;;;18.30;72.30;;;;;;6218237;22;87250;-72
2023/06/16 04:41:39;;;;;;;8.48;2.20;;;18.40;72.40;;;;;;6217576;22;88029;-73
2023/06/16 04:44:08;;;;;;;5.15;2.15;;;18.40;72.00;;;;;;6217661;22;88382;-74
2023/06/16 04:46:33;;;;;;;4.80;2.58;;;18.40;71.80;;;;;;6215500;22;87573;-73
2023/06/16 04:48:59;;;;;;;7.15;1.65;;;18.50;70.90;;;;;;6218703;22;86518;-73
2023/06/16 04:51:26;;;;;;;4.88;2.15;;;18.60;71.10;;;;;;6216742;22;88650;-75
2023/06/16 04:53:53;;;;;;;7.80;2.60;;;19.10;69.20;;;;;;6215993;22;87264;-76
2023/06/16 04:56:19;;;;;;;4.85;2.35;;;19.30;68.20;;;;;;6218241;22;88379;-76
2023/06/16 04:58:45;;;;;;;4.43;2.58;;;19.40;67.40;;;;;;6219321;22;87407;-76
2023/06/16 05:01:11;;;;;;;4.13;2.20;;;19.80;66.60;;;;;;6217671;22;87301;-75
2023/06/16 05:03:37;;;;;;;4.32;1.83;;;20.00;65.70;;;;;;6219175;22;87374;-75
2023/06/16 05:06:03;;;;;;;4.95;1.70;;;19.90;65.70;;;;;;6218047;22;87127;-75
2023/06/16 05:08:29;;;;;;;6.47;2.10;;;19.90;66.50;;;;;;6218508;22;87339;-75
2023/06/16 05:10:54;;;;;;;6.82;2.88;;;20.00;65.40;;;;;;6219291;22;87351;-75
2023/06/16 05:13:20;;;;;;;5.28;2.47;;;20.20;65.20;;;;;;6219115;22;88107;-75
2023/06/16 05:15:46;;;;;;;6.70;2.40;;;20.30;64.60;;;;;;6218730;22;87541;-75
2023/06/16 05:18:11;;;;;;;3.47;2.13;;;20.40;64.80;;;;;;6218452;22;88290;-75
2023/06/16 05:20:37;;;;;;;4.05;2.63;;;20.70;63.80;;;;;;6216261;22;89059;-75
2023/06/16 05:23:03;;;;;;;4.90;2.88;;;20.80;63.80;;;;;;6218131;22;88431;-75
2023/06/16 05:25:30;;;;;;;5.13;2.72;;;21.20;63.00;;;;;;6218212;22;88612;-75
2023/06/16 05:27:56;;;;;;;6.95;2.90;;;21.30;62.60;;;;;;6219024;22;87379;-76
2023/06/16 05:30:21;;;;;;;6.82;2.20;;;21.40;62.30;;;;;;6218494;22;87160;-76
2023/06/16 05:32:48;;;;;;;5.53;3.08;;;21.70;61.90;;;;;;6218980;22;87792;-74
2023/06/16 05:35:14;;;;;;;4.97;3.00;;;21.80;61.00;;;;;;6218451;22;87287;-75
2023/06/16 05:37:39;;;;;;;7.88;2.88;;;21.60;61.50;;;;;;6219192;22;86518;-76
2023/06/16 05:40:06;;;;;;;4.05;2.10;;;21.40;62.10;;;;;;6216032;22;87484;-75
2023/06/16 05:42:33;;;;;;;10.10;3.20;;;21.60;61.90;;;;;;6215828;22;87667;-75
2023/06/16 05:44:58;;;;;;;4.90;2.85;;;21.70;61.50;;;;;;6218077;22;87977;-75
2023/06/16 05:47:24;;;;;;;7.88;3.33;;;21.30;62.80;;;;;;6218542;22;87409;-75
2023/06/16 05:49:50;;;;;;;5.43;3.17;;;21.30;62.60;;;;;;6217105;22;87962;-74
2023/06/16 05:52:16;;;;;;;5.43;3.10;;;21.30;62.90;;;;;;6218156;22;87374;-75
2023/06/16 05:54:41;;;;;;;4.95;3.05;;;21.50;62.60;;;;;;6217035;22;87226;-75
2023/06/16 05:57:07;;;;;;;6.85;3.00;;;21.50;62.80;;;;;;6218260;22;87388;-73
2023/06/16 05:59:36;;;;;;;8.02;2.95;;;21.40;62.30;;;;;;6216116;22;88671;-73
2023/06/16 06:02:02;;;;;;;12.25;3.33;;;21.40;62.40;;;;;;6218612;22;87469;-73
2023/06/16 06:04:30;;;;;;;8.43;3.20;;;21.30;62.50;;;;;;6218617;22;87208;-73
2023/06/16 06:06:56;;;;;;;9.25;3.20;;;21.20;63.10;;;;;;6218997;22;87333;-73
2023/06/16 06:09:22;;;;;;;6.25;3.22;;;21.20;63.50;;;;;;6218101;22;89627;-72
2023/06/16 06:11:48;;;;;;;5.70;2.90;;;21.20;64.10;;;;;;6218413;22;88858;-72
2023/06/16 06:14:14;;;;;;;5.28;3.00;;;21.30;63.10;;;;;;6218906;22;87350;-72
2023/06/16 06:16:40;;;;;;;9.77;3.95;;;21.50;63.30;;;;;;6218739;22;87176;-72
2023/06/16 06:19:06;;;;;;;13.50;2.47;;;22.50;63.50;;;;;;6218001;22;88412;-72
2023/06/16 06:21:33;;;;;;;4.10;2.97;;;23.90;57.70;;;;;;6218187;22;87507;-73
2023/06/16 06:24:00;;;;;;;11.07;2.75;;;24.90;54.40;;;;;;6219002;22;87244;-73
2023/06/16 06:26:26;;;;;;;6.93;2.60;;;25.40;51.40;;;;;;6219827;22;86671;-73
2023/06/16 06:28:52;;;;;;;6.82;3.60;;;26.40;50.10;;;;;;6218463;22;87325;-73
2023/06/16 06:31:18;;;;;;;6.18;2.85;;;28.00;47.80;;;;;;6219125;22;87723;-72
2023/06/16 06:33:45;;;;;;;7.07;3.40;;;29.00;46.60;;;;;;6217969;22;88282;-72
2023/06/16 06:36:11;;;;;;;4.65;3.00;;;30.00;45.00;;;;;;6219106;22;88579;-72
2023/06/16 06:38:37;;;;;;;6.78;2.75;;;29.80;43.30;;;;;;6218629;22;87899;-73
2023/06/16 06:41:02;;;;;;;6.07;2.95;;;30.70;43.30;;;;;;6218679;22;87647;-74
2023/06/16 06:43:28;;;;;;;5.85;2.60;;;30.80;43.10;;;;;;6218755;22;87032;-74
2023/06/16 06:45:54;;;;;;;9.85;3.22;;;31.10;42.70;;;;;;6219026;22;87237;-74
2023/06/16 06:48:20;;;;;;;5.35;3.03;;;30.90;42.00;;;;;;6218696;22;87479;-74
2023/06/16 06:50:47;;;;;;;11.25;2.80;;;30.80;42.60;;;;;;6219169;22;87259;-73
2023/06/16 06:53:13;;;;;;;7.40;3.25;;;30.70;42.40;;;;;;6191859;22;87074;-73
2023/06/16 06:55:39;;;;;;;4.32;3.25;;;30.70;42.20;;;;;;6219053;22;87279;-73
2023/06/16 06:58:05;;;;;;;9.20;3.40;;;31.70;42.00;;;;;;6217997;22;88296;-74
2023/06/16 07:00:30;;;;;;;21.50;3.83;;;32.50;41.30;;;;;;6218041;22;88288;-73
2023/06/16 07:02:56;;;;;;;9.52;4.05;;;32.70;39.20;;;;;;6219183;22;87368;-73
2023/06/16 07:05:22;;;;;;;9.88;2.75;;;33.10;39.20;;;;;;6218747;22;87376;-73
2023/06/16 07:07:47;;;;;;;5.40;2.65;;;32.90;39.10;;;;;;6218123;22;87953;-74
2023/06/16 07:10:13;;;;;;;6.35;2.65;;;32.80;39.60;;;;;;6218164;22;87241;-74
2023/06/16 07:12:38;;;;;;;8.23;3.03;;;33.30;37.80;;;;;;6218966;22;87190;-74
2023/06/16 07:15:05;;;;;;;3.83;2.83;;;33.60;39.00;;;;;;6218781;22;86756;-74
2023/06/16 07:17:31;;;;;;;9.18;3.75;;;33.40;39.40;;;;;;6217346;22;87647;-73
2023/06/16 07:19:57;;;;;;;7.07;3.38;;;33.60;39.10;;;;;;6217719;22;87781;-74
2023/06/16 07:22:22;;;;;;;8.52;3.95;;;34.50;38.90;;;;;;6218537;22;88095;-74
2023/06/16 07:24:48;;;;;;;6.97;3.92;;;36.40;37.20;;;;;;6218714;22;87171;-74
2023/06/16 07:27:14;;;;;;;7.72;3.92;;;37.00;35.20;;;;;;6218648;22;87925;-74
2023/06/16 07:29:40;;;;;;;8.80;4.90;;;37.40;35.00;;;;;;6217801;22;87386;-73
2023/06/16 07:32:06;;;;;;;10.68;5.05;;;38.00;33.60;;;;;;6218434;22;87121;-74
2023/06/16 07:34:32;;;;;;;8.60;4.38;;;38.70;34.50;;;;;;6219153;22;87304;-75
2023/06/16 07:36:58;;;;;;;13.60;4.93;;;39.60;33.20;;;;;;6217569;22;88179;-72
2023/06/16 07:39:24;;;;;;;7.22;4.22;;;40.10;32.80;;;;;;6218532;22;88363;-71
2023/06/16 07:41:50;;;;;;;11.05;5.07;;;40.70;32.50;;;;;;6217973;22;86983;-72
2023/06/16 07:44:16;;;;;;;15.18;5.07;;;40.50;32.00;;;;;;6218582;22;87419;-71
2023/06/16 07:46:45;;;;;;;13.65;5.53;;;41.20;32.10;;;;;;6217473;22;88835;-71
2023/06/16 07:49:12;;;;;;;12.63;5.20;;;40.60;32.10;;;;;;6190702;22;88931;-72
2023/06/16 07:51:38;;;;;;;12.10;5.78;;;40.50;32.20;;;;;;6218378;22;87302;-71
2023/06/16 07:54:03;;;;;;;8.65;5.18;;;40.70;31.40;;;;;;6218335;22;87423;-73
2023/06/16 07:56:29;;;;;;;7.97;3.90;;;41.60;32.00;;;;;;6218110;22;87657;-72
2023/06/16 07:58:55;;;;;;;8.88;6.18;;;42.10;31.70;;;;;;6218122;22;88261;-72
2023/06/16 08:01:20;;;;;;;9.32;6.20;;;42.80;31.10;;;;;;6217989;22;86986;-74
2023/06/16 08:03:48;;;;;;;9.02;6.15;;;43.60;30.40;;;;;;6218758;22;86221;-72
2023/06/16 08:06:14;;;;;;;8.70;6.78;;;43.80;29.50;;;;;;6217939;22;88015;-72
2023/06/16 08:08:39;;;;;;;10.98;5.78;;;43.30;29.80;;;;;;6218258;22;87076;-70
2023/06/16 08:11:06;;;;;;;11.88;5.63;;;43.50;30.00;;;;;;6217341;22;88254;-74
2023/06/16 08:13:32;;;;;;;6.97;4.97;;;43.70;29.70;;;;;;6218448;22;87018;-74
2023/06/16 08:15:58;;;;;;;5.30;4.80;;;43.70;30.20;;;;;;6217663;22;87291;-71
2023/06/16 08:18:24;;;;;;;9.00;6.95;;;44.40;29.60;;;;;;6217824;22;87712;-71
2023/06/16 08:20:51;;;;;;;8.32;7.45;;;44.80;30.00;;;;;;6217756;22;87183;-74
2023/06/16 08:23:17;;;;;;;11.45;7.63;;;45.30;30.00;;;;;;6218577;22;87459;-74
2023/06/16 08:25:43;;;;;;;7.90;5.53;;;45.20;29.40;;;;;;6217313;22;87569;-75
2023/06/16 08:28:08;;;;;;;8.05;6.80;;;45.90;29.30;;;;;;6218286;22;87342;-74
2023/06/16 08:30:35;;;;;;;7.63;6.93;;;43.90;30.00;;;;;;6218745;22;87354;-73
2023/06/16 08:33:01;;;;;;;10.05;9.02;;;43.20;30.90;;;;;;6219560;22;87286;-75
2023/06/16 08:35:28;;;;;;;8.68;7.50;;;44.00;30.40;;;;;;6218572;22;89000;-74
2023/06/16 08:37:54;;;;;;;7.35;6.75;;;43.80;29.80;;;;;;6218692;22;88689;-74
2023/06/16 08:40:19;;;;;;;8.52;7.82;;;44.80;29.70;;;;;;6219617;22;87336;-73
2023/06/16 08:42:47;;;;;;;8.35;7.57;;;44.70;29.30;;;;;;6219875;22;87240;-73
2023/06/16 08:45:13;;;;;;;6.13;5.63;;;45.10;29.10;;;;;;6219096;22;88550;-73
2023/06/16 08:47:39;;;;;;;7.20;5.30;;;44.60;29.20;;;;;;6219007;22;87249;-73
2023/06/16 08:50:09;;;;;;;6.45;5.85;;;43.10;29.10;;;;;;6219145;22;87374;-73
2023/06/16 08:52:38;;;;;;;6.93;6.32;;;43.10;29.50;;;;;;6217622;22;86324;-74
2023/06/16 08:55:08;;;;;;;8.80;5.65;;;43.50;28.70;;;;;;6218580;22;87465;-74
2023/06/16 08:57:40;;;;;;;4.78;4.38;;;42.60;29.70;;;;;;6217299;22;88606;-75
2023/06/16 09:00:09;;;;;;;6.90;4.50;;;42.30;30.20;;;;;;6217514;22;88377;-75
2023/06/16 09:02:36;;;;;;;7.15;6.13;;;43.50;29.70;;;;;;6219083;22;87749;-73
2023/06/16 09:05:03;;;;;;;7.85;6.60;;;43.90;29.60;;;;;;6218544;22;87633;-74
2023/06/16 09:07:29;;;;;;;;;;;44.70;29.70;;;;;;6218139;22;87282;-75
2023/06/16 09:09:58;;;;;;;8.13;7.43;;;44.60;29.20;;;;;;6220932;22;87134;-73
2023/06/16 09:12:23;;;;;;;8.38;7.60;;;45.30;29.10;;;;;;6219398;22;87495;-75
2023/06/16 09:14:50;;;;;;;5.15;4.53;;;45.50;28.30;;;;;;6218902;22;87294;-74
2023/06/16 09:17:22;;;;;;;9.35;8.40;;;45.20;29.10;;;;;;6218660;22;87836;-74
2023/06/16 09:19:47;;;;;;;7.40;6.63;;;45.50;28.40;;;;;;6218675;22;87327;-74
2023/06/16 09:22:21;;;;;;;5.63;4.60;;;45.20;27.90;;;;;;6219330;22;87195;-74
2023/06/16 09:24:57;;;;;;;9.38;8.57;;;45.00;28.10;;;;;;6218170;22;88529;-73
2023/06/16 09:27:50;;;;;;;8.38;7.63;;;45.30;28.90;;;;;;6218569;22;88073;-75
2023/06/16 09:30:18;;;;;;;8.50;7.20;;;45.20;28.50;;;;;;6192410;22;87270;-73
2023/06/16 09:32:53;;;;;;;10.63;9.68;;;45.40;28.60;;;;;;6192514;22;87525;-73
2023/06/16 09:35:21;;;;;;;9.40;7.63;;;45.40;27.70;;;;;;6218836;22;88104;-73
2023/06/16 09:37:52;;;;;;;7.28;6.57;;;45.20;28.00;;;;;;6219131;22;87336;-74
2023/06/16 09:40:24;;;;;;;8.68;7.88;;;45.30;27.80;;;;;;6219180;22;87374;-72
2023/06/16 09:42:50;;;;;;;11.85;7.45;;;44.60;28.00;;;;;;6216137;22;86693;-76
2023/06/16 09:45:17;;;;;;;8.50;7.80;;;44.00;28.20;;;;;;6214825;22;88398;-74
2023/06/16 09:47:45;;;;;;;7.55;6.95;;;44.20;28.30;;;;;;6217882;22;87800;-73
2023/06/16 09:50:15;;;;;;;8.48;7.30;;;44.40;29.00;;;;;;6218294;22;88360;-74
2023/06/16 09:52:45;;;;;;;8.52;7.55;;;44.40;28.40;;;;;;6219343;22;87288;-76
2023/06/16 09:55:12;;;;;;;6.25;5.72;;;44.20;27.70;;;;;;6217466;22;88039;-73
2023/06/16 09:57:40;;;;;;;9.80;6.50;;;43.60;29.10;;;;;;6218602;22;87346;-72
2023/06/16 10:00:15;;;;;;;7.43;6.70;;;43.20;28.20;;;;;;6218453;22;87362;-72
2023/06/16 10:02:43;;;;;;;6.85;6.25;;;42.80;28.90;;;;;;6220190;22;87315;-73
2023/06/16 10:05:10;;;;;;;7.03;6.32;;;42.10;29.70;;;;;;6218003;22;87511;-72
2023/06/16 10:07:41;;;;;;;6.07;5.47;;;40.70;31.40;;;;;;6219096;22;87586;-73
2023/06/16 10:10:10;;;;;;;6.05;4.72;;;39.60;31.30;;;;;;6218910;22;87684;-72
2023/06/16 10:12:36;;;;;;;4.68;4.13;;;38.40;32.10;;;;;;6218532;22;87515;-73
2023/06/16 10:15:03;;;;;;;5.05;4.55;;;37.80;31.80;;;;;;6217988;22;88959;-73
2023/06/16 10:17:32;;;;;;;4.47;3.88;;;36.50;31.90;;;;;;6217644;22;88621;-74
2023/06/16 10:19:58;;;;;;;3.53;3.00;;;35.50;35.70;;;;;;6218760;22;87447;-72
2023/06/16 10:22:24;;;;;;;5.25;3.42;;;35.20;36.70;;;;;;6218826;22;87390;-73
2023/06/16 10:24:51;;;;;;;5.43;3.80;;;34.50;33.70;;;;;;6217259;22;87677;-72
2023/06/16 10:27:18;;;;;;;8.07;3.80;;;33.50;34.00;;;;;;6218829;22;87739;-72
2023/06/16 10:29:46;;;;;;;7.13;2.65;;;33.00;35.80;;;;;;6219036;22;87410;-73
2023/06/16 10:32:12;;;;;;;7.43;3.08;;;32.40;36.60;;;;;;6219063;22;86215;-72
2023/06/16 10:34:49;;;;;;;6.32;3.30;;;31.80;36.10;;;;;;6217400;22;87291;-72
2023/06/16 10:37:15;;;;;;;4.50;2.83;;;31.00;36.40;;;;;;6218692;22;87680;-72
2023/06/16 10:39:43;;;;;;;5.82;3.15;;;30.60;36.10;;;;;;6216874;22;87968;-71
2023/06/16 10:42:14;;;;;;;4.00;2.92;;;30.50;36.80;;;;;;6217474;22;87330;-72
2023/06/16 10:44:40;;;;;;;4.47;3.05;;;30.30;40.00;;;;;;6217709;22;88078;-72
2023/06/16 10:47:09;;;;;;;4.35;2.83;;;30.30;37.80;;;;;;6216812;22;87631;-71
2023/06/16 10:49:52;;;;;;;5.90;2.97;;;30.40;36.50;;;;;;6217229;22;87385;-73
2023/06/16 10:52:44;;;;;;;4.03;2.90;;;30.30;38.60;;;;;;6217542;22;87295;-73
2023/06/16 10:55:37;;;;;;;4.32;3.15;;;30.60;36.10;;;;;;6201050;22;88077;-73
2023/06/16 10:58:15;;;;;;;4.30;3.13;;;30.70;37.60;;;;;;6218983;22;88944;-72
2023/06/16 11:01:02;;;;;;;6.85;3.13;;;30.60;38.50;;;;;;6217752;22;87081;-73
2023/06/16 11:03:34;;;;;;;5.05;2.25;;;30.50;38.10;;;;;;6216706;22;87819;-72
2023/06/16 11:06:01;;;;;;;4.85;2.85;;;30.60;37.30;;;;;;6214732;22;88823;-72
2023/06/16 11:08:30;;;;;;;4.05;2.03;;;30.60;37.80;;;;;;6216442;22;89044;-72
2023/06/16 11:11:02;;;;;;;7.13;3.17;;;30.40;37.30;;;;;;6213904;22;87218;-72
2023/06/16 11:13:39;;;;;;;4.53;3.03;;;30.30;36.60;;;;;;6216648;22;87266;-74
2023/06/16 11:16:06;;;;;;;3.90;2.88;;;30.50;36.10;;;;;;6215791;22;88158;-72
2023/06/16 11:18:35;;;;;;;5.72;2.65;;;30.50;35.10;;;;;;6215847;22;87781;-73
2023/06/16 11:21:08;;;;;;;5.55;3.17;;;30.50;35.80;;;;;;6216145;22;87435;-74
2023/06/16 11:23:34;;;;;;;5.75;3.55;;;30.20;36.80;;;;;;6214287;22;86278;-73
2023/06/16 11:26:08;;;;;;;7.22;2.88;;;29.80;37.00;;;;;;6215422;22;87438;-73
2023/06/16 11:28:40;;;;;;;5.05;2.75;;;29.90;36.10;;;;;;6214664;22;87751;-72
2023/06/16 11:31:07;;;;;;;6.57;2.85;;;29.80;37.90;;;;;;6214676;22;88259;-73
2023/06/16 11:33:33;;;;;;;3.90;2.60;;;30.00;37.50;;;;;;6214914;22;87560;-73
2023/06/16 11:36:12;;;;;;;8.15;3.35;;;30.10;36.80;;;;;;6211447;22;87575;-73
2023/06/16 11:38:43;;;;;;;5.70;2.85;;;30.20;34.80;;;;;;6215351;22;87733;-73
2023/06/16 11:41:15;;;;;;;5.10;2.47;;;30.20;34.90;;;;;;6216259;22;87632;-72
2023/06/16 11:43:42;;;;;;;5.57;2.97;;;30.30;35.10;;;;;;6216570;22;87302;-71
2023/06/16 11:46:08;;;;;;;4.63;2.65;;;30.40;35.30;;;;;;6215934;22;87658;-74
2023/06/16 11:48:33;;;;;;;7.18;2.65;;;30.20;38.00;;;;;;6216634;22;87128;-72
2023/06/16 11:51:00;;;;;;;8.70;2.70;;;29.90;37.40;;;;;;6216330;22;86960;-73
2023/06/16 11:53:26;;;;;;;6.88;2.72;;;29.90;35.40;;;;;;6216433;22;87525;-74
2023/06/16 11:55:51;;;;;;;6.10;2.55;;;29.90;36.20;;;;;;6215168;22;88912;-71
2023/06/16 11:58:18;;;;;;;4.45;2.60;;;29.70;36.40;;;;;;6213456;22;89170;-72
2023/06/16 12:00:46;;;;;;;3.85;2.45;;;29.70;36.70;;;;;;6216295;22;87418;-72
2023/06/16 12:03:12;;;;;;;5.32;2.30;;;29.90;35.30;;;;;;6216327;22;89305;-72
2023/06/16 12:05:38;;;;;;;5.82;2.53;;;30.50;40.30;;;;;;6214304;22;88116;-74
2023/06/16 12:08:04;;;;;;;2.65;1.83;;;30.70;37.20;;;;;;6216855;22;88228;-74
2023/06/16 12:10:30;;;;;;;4.53;2.88;;;30.50;36.20;;;;;;6215162;22;87347;-74
2023/06/16 12:12:56;;;;;;;5.95;3.05;;;30.20;38.70;;;;;;6217905;22;86668;-72
2023/06/16 12:15:23;;;;;;;5.55;1.83;;;29.90;38.90;;;;;;6217219;22;88569;-72
2023/06/16 12:17:50;;;;;;;10.20;3.38;;;29.50;38.60;;;;;;6216826;22;87738;-73
2023/06/16 12:20:18;;;;;;;8.43;2.95;;;29.60;39.80;;;;;;6216075;22;88529;-72
2023/06/16 12:22:44;;;;;;;3.70;2.80;;;29.50;37.80;;;;;;6216394;22;87470;-73
2023/06/16 12:25:17;;;;;;;5.45;2.85;;;29.50;36.00;;;;;;6213616;22;88079;-73
2023/06/16 12:27:49;;;;;;;3.30;2.88;;;29.40;35.80;;;;;;6217063;22;87379;-73
2023/06/16 12:30:15;;;;;;;4.00;2.50;;;29.40;36.20;;;;;;6216333;22;87104;-75
2023/06/16 12:32:42;;;;;;;6.60;2.88;;;29.50;36.60;;;;;;6216205;22;87271;-73
2023/06/16 12:35:08;;;;;;;5.60;2.70;;;29.40;37.10;;;;;;6213629;22;87330;-72
2023/06/16 12:37:34;;;;;;;5.70;3.20;;;29.50;36.90;;;;;;6216393;22;87520;-72
2023/06/16 12:40:10;;;;;;;5.43;2.55;;;29.90;38.60;;;;;;6216554;22;87302;-73
2023/06/16 12:42:37;;;;;;;7.78;2.10;;;30.10;38.00;;;;;;6217090;22;87436;-73
2023/06/16 12:45:05;;;;;;;4.93;3.20;;;30.20;37.50;;;;;;6215604;22;89367;-72
2023/06/16 12:47:32;;;;;;;4.53;3.13;;;30.30;38.20;;;;;;6216853;22;88981;-73
2023/06/16 12:50:01;;;;;;;6.70;3.05;;;30.20;38.40;;;;;;6217012;22;87373;-73
2023/06/16 12:52:28;;;;;;;6.55;2.67;;;30.20;35.70;;;;;;6217131;22;87459;-71
2023/06/16 12:54:56;;;;;;;7.00;3.22;;;30.00;37.60;;;;;;6216418;22;88661;-71
2023/06/16 12:57:23;;;;;;;7.60;3.47;;;29.90;37.40;;;;;;6189875;22;88517;-73
2023/06/16 12:59:51;;;;;;;9.40;3.30;;;29.60;35.70;;;;;;6214312;22;87511;-74
2023/06/16 13:02:17;;;;;;;5.80;3.42;;;29.30;35.40;;;;;;6217656;22;86577;-74
2023/06/16 13:04:43;;;;;;;6.28;3.38;;;29.00;32.30;;;;;;6216479;22;88293;-72
2023/06/16 13:07:09;;;;;;;8.50;3.63;;;29.00;34.70;;;;;;6216584;22;87437;-73
2023/06/16 13:09:34;;;;;;;5.20;2.95;;;29.20;34.40;;;;;;6216416;22;87954;-72
2023/06/16 13:12:02;;;;;;;6.90;2.42;;;29.30;34.90;;;;;;6217116;22;87473;-71
2023/06/16 13:14:28;;;;;;;6.68;3.40;;;29.30;34.70;;;;;;6216764;22;88610;-72
2023/06/16 13:16:54;;;;;;;5.53;3.20;;;29.30;33.60;;;;;;6216004;22;87419;-73
2023/06/16 13:19:20;;;;;;;6.20;2.70;;;29.20;34.50;;;;;;6217091;22;87544;-73
2023/06/16 13:21:46;;;;;;;8.60;2.97;;;29.10;34.50;;;;;;6217221;22;86957;-75
2023/06/16 13:24:12;;;;;;;4.25;2.80;;;29.00;34.20;;;;;;6217633;22;87572;-71
2023/06/16 13:26:39;;;;;;;5.78;2.97;;;29.00;36.50;;;;;;6219066;22;87081;-73
2023/06/16 13:29:05;;;;;;;5.85;3.08;;;29.10;36.10;;;;;;6218388;22;87290;-71
2023/06/16 13:31:31;;;;;;;7.78;3.13;;;29.00;36.40;;;;;;6218158;22;87065;-74
2023/06/16 13:33:58;;;;;;;4.97;2.45;;;29.00;36.70;;;;;;6217534;22;89405;-76
2023/06/16 13:36:24;;;;;;;5.15;2.70;;;29.00;36.60;;;;;;6218698;22;89561;-73
2023/06/16 13:38:50;;;;;;;5.72;2.78;;;29.00;36.20;;;;;;6218038;22;87551;-72
2023/06/16 13:41:17;;;;;;;7.93;2.35;;;29.10;37.30;;;;;;6217738;22;87500;-74
2023/06/16 13:43:44;;;;;;;6.10;2.65;;;29.00;37.50;;;;;;6218641;22;88540;-75
2023/06/16 13:46:10;;;;;;;5.68;2.88;;;28.70;37.90;;;;;;6191643;22;89240;-74
2023/06/16 13:48:36;;;;;;;5.30;2.88;;;28.70;39.00;;;;;;6218829;22;86966;-73
2023/06/16 13:51:02;;;;;;;8.55;2.92;;;28.70;37.70;;;;;;6218543;22;86697;-72
2023/06/16 13:53:28;;;;;;;6.72;2.88;;;28.70;37.90;;;;;;6217521;22;88046;-74
2023/06/16 13:55:54;;;;;;;6.20;2.75;;;28.60;37.90;;;;;;6218461;22;87061;-73
2023/06/16 13:58:20;;;;;;;5.30;2.72;;;28.70;38.60;;;;;;6216126;22;88306;-75
2023/06/16 14:00:46;;;;;;;5.55;2.80;;;28.50;40.70;;;;;;6222669;22;86977;-73
2023/06/16 14:03:12;;;;;;;7.15;2.60;;;28.60;40.70;;;;;;6221656;22;87366;-73
2023/06/16 14:05:39;;;;;;;9.60;3.13;;;28.60;38.40;;;;;;6220124;22;87781;-73
2023/06/16 14:08:05;;;;;;;5.57;3.17;;;28.40;37.40;;;;;;6218311;22;87062;-70
2023/06/16 14:10:30;;;;;;;10.00;2.88;;;28.10;38.20;;;;;;6218506;22;87687;-71
2023/06/16 14:12:56;;;;;;;4.97;3.05;;;28.10;38.20;;;;;;6216072;22;88880;-70
2023/06/16 14:15:22;;;;;;;11.73;3.83;;;28.40;40.30;;;;;;6217900;22;87278;-71
2023/06/16 14:17:48;;;;;;;6.57;3.33;;;28.70;40.70;;;;;;6218395;22;87473;-70
2023/06/16 14:20:13;;;;;;;6.00;3.33;;;29.00;40.10;;;;;;6219995;22;87356;-70
2023/06/16 14:22:40;;;;;;;9.75;2.72;;;29.30;39.80;;;;;;6220241;22;89009;-70
2023/06/16 14:25:07;;;;;;;6.55;3.20;;;29.60;40.00;;;;;;6221656;22;87123;-68
2023/06/16 14:27:33;;;;;;;8.35;3.15;;;29.30;36.80;;;;;;6215341;22;86867;-66
2023/06/16 14:30:09;;;;;;;7.90;2.60;;;29.20;39.30;;;;;;6221089;22;87077;-68
2023/06/16 14:32:36;;;;;;;11.95;3.40;;;28.90;39.10;;;;;;6221789;22;87754;-68
2023/06/16 14:35:03;;;;;;;8.25;3.00;;;28.90;38.30;;;;;;6221491;22;87314;-69
2023/06/16 14:37:29;;;;;;;6.22;2.40;;;28.90;38.00;;;;;;6221306;22;87004;-68
2023/06/16 14:39:55;;;;;;;6.30;3.03;;;28.80;37.90;;;;;;6219787;22;87643;-68
2023/06/16 14:42:21;;;;;;;7.03;3.47;;;28.70;39.30;;;;;;6219299;22;88011;-70
2023/06/16 14:44:46;;;;;;;5.45;2.42;;;28.60;39.10;;;;;;6221448;22;87349;-71
2023/06/16 14:47:12;;;;;;;6.63;2.92;;;28.80;37.60;;;;;;6221689;22;87947;-70
2023/06/16 14:49:38;;;;;;;6.85;2.95;;;28.90;39.60;;;;;;6218644;22;87305;-69
2023/06/16 14:52:04;;;;;;;18.02;3.55;;;29.10;40.00;;;;;;6221308;22;88184;-69
2023/06/16 14:54:30;;;;;;;6.25;2.50;;;29.20;39.30;;;;;;6221646;22;87542;-71
2023/06/16 14:56:57;;;;;;;7.05;2.45;;;29.10;39.60;;;;;;6221762;22;87343;-77
2023/06/16 14:59:24;;;;;;;9.55;2.67;;;29.20;38.60;;;;;;6221533;22;87454;-69
2023/06/16 15:01:50;;;;;;;7.43;2.80;;;29.00;38.30;;;;;;6219536;22;87911;-68
2023/06/16 15:04:15;;;;;;;8.95;3.03;;;28.90;38.30;;;;;;6221816;22;87141;-68
2023/06/16 15:06:41;;;;;;;6.68;3.10;;;28.80;39.20;;;;;;6220697;22;87408;-67
2023/06/16 15:09:07;;;;;;;5.32;2.97;;;29.00;38.70;;;;;;6219002;22;87268;-70
2023/06/16 15:11:33;;;;;;;13.73;3.17;;;29.00;36.70;;;;;;6217835;22;88379;-69
2023/06/16 15:13:58;;;;;;;5.75;3.28;;;28.70;37.20;;;;;;6218398;22;88181;-68
2023/06/16 15:16:30;;;;;;;8.05;2.80;;;28.50;38.20;;;;;;6219929;22;88491;-70
2023/06/16 15:18:59;;;;;;;6.40;3.15;;;28.50;38.10;;;;;;6220311;22;86977;-67
2023/06/16 15:21:25;;;;;;;7.25;4.25;;;28.50;39.40;;;;;;6221270;22;88237;-65
2023/06/16 15:23:52;;;;;;;8.18;3.72;;;28.50;37.00;;;;;;6221382;22;87266;-67
2023/06/16 15:26:17;;;;;;;6.57;2.72;;;28.50;38.80;;;;;;6215872;22;87718;-72
2023/06/16 15:28:43;;;;;;;5.95;3.10;;;28.40;37.00;;;;;;6190481;22;86888;-72
2023/06/16 15:31:10;;;;;;;4.93;2.85;;;28.30;37.80;;;;;;6216114;22;87288;-72
2023/06/16 15:33:36;;;;;;;6.05;2.80;;;28.40;39.40;;;;;;6219587;22;87634;-72
2023/06/16 15:36:03;;;;;;;5.88;2.55;;;28.50;38.30;;;;;;6217549;22;88509;-72
2023/06/16 15:38:29;;;;;;;6.18;3.55;;;28.70;37.10;;;;;;6220038;22;87440;-73
2023/06/16 15:40:55;;;;;;;8.50;2.88;;;28.60;37.90;;;;;;6219617;22;87209;-83
2023/06/16 15:43:21;;;;;;;6.15;3.25;;;28.60;37.60;;;;;;6217385;22;87427;-73
2023/06/16 15:45:47;;;;;;;4.68;3.03;;;28.60;37.60;;;;;;6214972;22;87485;-73
2023/06/16 15:48:13;;;;;;;4.90;2.92;;;28.60;37.50;;;;;;6220637;22;87534;-72
2023/06/16 15:50:39;;;;;;;8.60;2.63;;;28.60;38.50;;;;;;6220413;22;87606;-72
2023/06/16 15:53:05;;;;;;;7.10;3.08;;;28.50;37.30;;;;;;6221619;22;87786;-72
2023/06/16 15:55:31;;;;;;;4.88;3.30;;;28.40;37.20;;;;;;6218978;22;87004;-71
2023/06/16 15:57:57;;;;;;;5.43;2.78;;;28.30;38.30;;;;;;6220693;22;87351;-71
2023/06/16 16:00:23;;;;;;;4.78;2.72;;;28.30;38.10;;;;;;6218149;22;88567;-73